Time;durP1;ratioP1;P1;durP2;ratioP2;P2;SDS_P1;SDS_P2;PMS_P1;PMS_P2;Temp;Humidity;BMP_temperature;BMP_pressure;BME280_temperature;BME280_humidity;BME280_pressure;Samples;Min_cycle;Max_cycle;Signal;HPM_P1;HPM_P2
2023/08/26 00:02:26;;;;;;;7.97;5.22;;;;;;;;;;5134417;27;20467;-63
2023/08/26 00:04:53;;;;;;;7.97;4.63;;;;;;;;;;5121253;27;20075;-63
2023/08/26 00:07:19;;;;;;;7.70;4.20;;;;;;;;;;5113404;28;20424;-61
2023/08/26 00:09:46;;;;;;;9.35;5.55;;;;;;;;;;5111668;28;20519;-62
2023/08/26 00:12:13;;;;;;;10.88;5.38;;;;;;;;;;5115516;27;20382;-62
2023/08/26 00:14:40;;;;;;;9.35;4.93;;;;;;;;;;5133511;27;20043;-62
2023/08/26 00:17:08;;;;;;;12.93;6.75;;;;;;;;;;5133877;27;20055;-62
2023/08/26 00:19:35;;;;;;;8.88;5.75;;;;;;;;;;5134104;27;20062;-63
2023/08/26 00:22:05;;;;;;;11.50;5.82;;;;;;;;;;5119731;27;20058;-62
2023/08/26 00:24:32;;;;;;;10.73;7.25;;;;;;;;;;5113054;28;20401;-62
2023/08/26 00:26:59;;;;;;;9.35;5.90;;;;;;;;;;5113192;28;20682;-62
2023/08/26 00:29:26;;;;;;;11.32;7.00;;;;;;;;;;5112952;28;20153;-62
2023/08/26 00:31:56;;;;;;;10.40;6.45;;;;;;;;;;5112735;28;20059;-62
2023/08/26 00:34:24;;;;;;;10.27;7.35;;;;;;;;;;5116780;27;20412;-62
2023/08/26 00:36:50;;;;;;;11.15;6.13;;;;;;;;;;5127884;27;20063;-62
2023/08/26 00:39:17;;;;;;;13.57;6.22;;;;;;;;;;5133125;27;20073;-62
2023/08/26 00:41:45;;;;;;;11.80;6.60;;;;;;;;;;5124646;27;20059;-62
2023/08/26 00:44:11;;;;;;;9.35;7.05;;;;;;;;;;5128378;27;20495;-62
2023/08/26 00:46:38;;;;;;;11.43;7.50;;;;;;;;;;5133104;27;20069;-62
2023/08/26 00:49:05;;;;;;;10.55;7.00;;;;;;;;;;5125174;27;20059;-63
2023/08/26 00:51:34;;;;;;;10.07;6.45;;;;;;;;;;5113050;27;20416;-62
2023/08/26 00:54:00;;;;;;;10.25;5.78;;;;;;;;;;5112513;28;20077;-63
2023/08/26 00:56:27;;;;;;;8.15;5.93;;;;;;;;;;5111522;28;20051;-62
2023/08/26 01:01:58;;;;;;;10.75;6.90;;;;;;;;;;5102108;28;20027;-63
2023/08/26 01:04:25;;;;;;;10.70;7.18;;;;;;;;;;5112540;28;20055;-62
2023/08/26 01:06:53;;;;;;;8.82;6.03;;;;;;;;;;5112477;28;20058;-63
2023/08/26 01:09:20;;;;;;;10.75;6.20;;;;;;;;;;5112390;28;20048;-62
2023/08/26 01:11:50;;;;;;;12.18;7.13;;;;;;;;;;5111980;28;20051;-62
2023/08/26 01:14:20;;;;;;;12.38;7.50;;;;;;;;;;5092062;28;20052;-62
2023/08/26 01:16:47;;;;;;;13.23;8.65;;;;;;;;;;5092332;28;20056;-63
2023/08/26 01:19:18;;;;;;;11.60;7.18;;;;;;;;;;5110805;28;20047;-62
2023/08/26 01:21:45;;;;;;;13.20;6.78;;;;;;;;;;5112411;28;20066;-63
2023/08/26 01:24:14;;;;;;;11.82;6.55;;;;;;;;;;5112374;28;20048;-63
2023/08/26 01:26:41;;;;;;;13.57;8.05;;;;;;;;;;5112422;28;20051;-62
2023/08/26 01:29:08;;;;;;;10.50;6.32;;;;;;;;;;5111278;28;20496;-63
2023/08/26 01:31:38;;;;;;;13.25;6.72;;;;;;;;;;5112164;28;20058;-62
2023/08/26 01:34:04;;;;;;;;;;;;;;;;;;5113338;28;20063;-63
2023/08/26 01:36:32;;;;;;;13.05;8.05;;;;;;;;;;5112376;28;19920;-63
2023/08/26 01:38:59;;;;;;;13.52;7.05;;;;;;;;;;5112398;28;20058;-62
2023/08/26 01:41:28;;;;;;;18.15;9.75;;;;;;;;;;5110647;28;20059;-62
2023/08/26 01:43:55;;;;;;;19.58;10.65;;;;;;;;;;5105957;28;20412;-62
2023/08/26 01:46:34;;;;;;;16.00;9.05;;;;;;;;;;5113323;28;20055;-62
2023/08/26 01:49:01;;;;;;;15.50;9.55;;;;;;;;;;5116497;28;20484;-62
2023/08/26 01:51:27;;;;;;;16.05;9.68;;;;;;;;;;5116532;27;20059;-62
2023/08/26 01:53:54;;;;;;;15.77;9.02;;;;;;;;;;5131698;27;20074;-62
2023/08/26 01:56:21;;;;;;;18.45;10.32;;;;;;;;;;5134272;27;20062;-61
2023/08/26 01:58:49;;;;;;;14.15;9.15;;;;;;;;;;5129913;27;20059;-62
2023/08/26 02:01:16;;;;;;;16.85;9.73;;;;;;;;;;5122109;27;20381;-61
2023/08/26 02:03:43;;;;;;;16.33;9.60;;;;;;;;;;5114895;28;20062;-62
2023/08/26 02:06:11;;;;;;;14.70;7.43;;;;;;;;;;5115384;28;20433;-62
2023/08/26 02:08:38;;;;;;;14.27;7.60;;;;;;;;;;5115999;28;20052;-63
2023/08/26 02:11:04;;;;;;;13.15;7.95;;;;;;;;;;5115872;28;20051;-62
2023/08/26 02:13:31;;;;;;;12.60;7.60;;;;;;;;;;5115880;28;20056;-63
2023/08/26 02:15:59;;;;;;;14.25;6.68;;;;;;;;;;5115678;28;20047;-62
2023/08/26 02:18:26;;;;;;;13.93;8.63;;;;;;;;;;5115634;28;20048;-62
2023/08/26 02:20:53;;;;;;;11.68;6.72;;;;;;;;;;5114665;28;20051;-62
2023/08/26 02:23:20;;;;;;;11.93;7.78;;;;;;;;;;5115833;28;20055;-62
2023/08/26 02:25:47;;;;;;;9.65;6.00;;;;;;;;;;5115822;28;20424;-62
2023/08/26 02:28:13;;;;;;;9.45;5.57;;;;;;;;;;5115658;28;20059;-63
2023/08/26 02:30:40;;;;;;;8.25;5.65;;;;;;;;;;5115398;28;20058;-62
2023/08/26 02:33:08;;;;;;;7.95;5.05;;;;;;;;;;5115471;28;20052;-62
2023/08/26 02:35:35;;;;;;;6.88;4.72;;;;;;;;;;5115631;28;20043;-62
2023/08/26 02:38:02;;;;;;;5.60;3.65;;;;;;;;;;5114258;28;20059;-63
2023/08/26 02:40:29;;;;;;;7.32;4.55;;;;;;;;;;5115451;28;20476;-62
2023/08/26 02:42:56;;;;;;;7.80;3.90;;;;;;;;;;5115404;28;20051;-62
2023/08/26 02:45:23;;;;;;;8.68;4.03;;;;;;;;;;5114689;28;20047;-61
2023/08/26 02:47:50;;;;;;;4.68;3.28;;;;;;;;;;5115506;28;20481;-63
2023/08/26 02:50:18;;;;;;;5.47;2.72;;;;;;;;;;5115590;28;20051;-63
2023/08/26 02:52:50;;;;;;;5.43;3.25;;;;;;;;;;5115517;28;20052;-62
2023/08/26 02:55:18;;;;;;;5.07;3.40;;;;;;;;;;5114641;28;20044;-62
2023/08/26 02:57:47;;;;;;;7.43;3.25;;;;;;;;;;5114213;28;20052;-62
2023/08/26 03:00:15;;;;;;;6.70;2.67;;;;;;;;;;5114731;28;20070;-62
2023/08/26 03:02:42;;;;;;;7.63;3.50;;;;;;;;;;5127289;27;20062;-62
2023/08/26 03:05:09;;;;;;;3.53;2.30;;;;;;;;;;5133109;27;20120;-62
2023/08/26 03:07:38;;;;;;;3.00;1.90;;;;;;;;;;5127751;27;20077;-62
2023/08/26 03:10:06;;;;;;;3.58;2.00;;;;;;;;;;5130150;27;20047;-62
2023/08/26 03:12:32;;;;;;;3.60;1.80;;;;;;;;;;5122219;27;20051;-62
2023/08/26 03:14:59;;;;;;;3.95;2.55;;;;;;;;;;5114501;28;20052;-63
2023/08/26 03:17:26;;;;;;;4.18;2.20;;;;;;;;;;5114382;28;20389;-62
2023/08/26 03:19:53;;;;;;;2.80;2.00;;;;;;;;;;5094139;28;20052;-61
2023/08/26 03:22:20;;;;;;;4.47;2.03;;;;;;;;;;5094036;28;20497;-62
2023/08/26 03:24:51;;;;;;;2.50;1.60;;;;;;;;;;5093654;28;20051;-61
2023/08/26 03:27:17;;;;;;;3.03;1.58;;;;;;;;;;5094261;28;20404;-62
2023/08/26 03:29:44;;;;;;;2.67;1.58;;;;;;;;;;5111966;28;20055;-61
2023/08/26 03:32:13;;;;;;;2.38;1.40;;;;;;;;;;5113805;28;20052;-62
2023/08/26 03:34:43;;;;;;;4.20;1.95;;;;;;;;;;5114027;28;20062;-62
2023/08/26 03:37:14;;;;;;;2.20;1.40;;;;;;;;;;5114069;28;20047;-62
2023/08/26 03:39:41;;;;;;;2.95;1.20;;;;;;;;;;5114355;28;20389;-62
2023/08/26 03:42:09;;;;;;;1.60;1.00;;;;;;;;;;5106473;28;20055;-62
2023/08/26 03:44:39;;;;;;;3.53;1.30;;;;;;;;;;5112704;28;20052;-62
2023/08/26 03:47:06;;;;;;;1.58;1.17;;;;;;;;;;5093677;28;20177;-62
2023/08/26 03:49:33;;;;;;;3.03;0.82;;;;;;;;;;5093484;28;20052;-62
2023/08/26 03:52:00;;;;;;;1.95;1.60;;;;;;;;;;5093275;28;20056;-62
2023/08/26 03:54:26;;;;;;;1.55;0.95;;;;;;;;;;5093169;28;20159;-62
2023/08/26 03:56:53;;;;;;;4.00;1.40;;;;;;;;;;5093421;28;20473;-62
2023/08/26 03:59:21;;;;;;;2.95;1.25;;;;;;;;;;5093040;28;20507;-62
2023/08/26 04:01:48;;;;;;;2.17;1.40;;;;;;;;;;5095054;28;20059;-62
2023/08/26 04:04:15;;;;;;;3.92;1.48;;;;;;;;;;5113593;28;20048;-62
2023/08/26 04:06:42;;;;;;;2.42;1.50;;;;;;;;;;5113377;28;20047;-62
2023/08/26 04:09:09;;;;;;;1.60;0.95;;;;;;;;;;5113270;28;20078;-62
2023/08/26 04:11:35;;;;;;;2.80;1.25;;;;;;;;;;5113301;28;20481;-62
2023/08/26 04:14:02;;;;;;;3.25;1.60;;;;;;;;;;5125032;27;20055;-62
2023/08/26 04:16:30;;;;;;;4.20;0.90;;;;;;;;;;5128366;27;20150;-62
2023/08/26 04:18:57;;;;;;;2.70;1.52;;;;;;;;;;5132687;27;20399;-62
2023/08/26 04:21:24;;;;;;;2.17;1.10;;;;;;;;;;5131925;27;20400;-62
2023/08/26 04:23:51;;;;;;;1.40;0.98;;;;;;;;;;5131521;27;20078;-61
2023/08/26 04:26:17;;;;;;;2.80;1.35;;;;;;;;;;5111636;27;20380;-62
2023/08/26 04:28:44;;;;;;;1.63;0.98;;;;;;;;;;5120347;27;20492;-62
2023/08/26 04:31:11;;;;;;;3.85;1.30;;;;;;;;;;5112783;28;20496;-62
2023/08/26 04:33:39;;;;;;;2.47;0.90;;;;;;;;;;5113231;28;20427;-62
2023/08/26 04:36:06;;;;;;;2.20;1.20;;;;;;;;;;5112017;28;20043;-62
2023/08/26 04:38:33;;;;;;;2.05;1.00;;;;;;;;;;5113206;28;20060;-62
2023/08/26 04:41:00;;;;;;;3.95;1.35;;;;;;;;;;5112876;28;20059;-62
2023/08/26 04:43:28;;;;;;;1.73;0.75;;;;;;;;;;5104295;28;20062;-62
2023/08/26 04:45:55;;;;;;;1.75;0.77;;;;;;;;;;5112838;28;20473;-62
2023/08/26 04:48:22;;;;;;;2.38;0.68;;;;;;;;;;5131640;27;20051;-62
2023/08/26 04:50:50;;;;;;;3.40;1.00;;;;;;;;;;5133524;27;20050;-62
2023/08/26 04:53:16;;;;;;;2.10;1.33;;;;;;;;;;5125658;27;20051;-62
2023/08/26 04:55:43;;;;;;;2.33;0.80;;;;;;;;;;5112405;28;20047;-62
2023/08/26 04:58:10;;;;;;;1.83;0.77;;;;;;;;;;5113006;28;20067;-62
2023/08/26 05:00:41;;;;;;;1.80;0.82;;;;;;;;;;5112664;28;20062;-62
2023/08/26 05:03:08;;;;;;;2.08;1.10;;;;;;;;;;5112675;28;20047;-62
2023/08/26 05:05:35;;;;;;;1.40;0.73;;;;;;;;;;5112437;28;20408;-62
2023/08/26 05:08:03;;;;;;;1.27;0.65;;;;;;;;;;5112665;28;20055;-62
2023/08/26 05:10:30;;;;;;;1.40;1.05;;;;;;;;;;5111786;28;20512;-62
2023/08/26 05:12:56;;;;;;;1.77;0.90;;;;;;;;;;5112609;28;20472;-62
2023/08/26 05:15:23;;;;;;;2.03;0.90;;;;;;;;;;5112458;28;20052;-62
2023/08/26 05:17:50;;;;;;;1.40;0.75;;;;;;;;;;5112477;28;20067;-62
2023/08/26 05:20:17;;;;;;;1.38;0.80;;;;;;;;;;5112573;28;20056;-62
2023/08/26 05:22:43;;;;;;;4.45;1.27;;;;;;;;;;5116722;28;20405;-62
2023/08/26 05:25:12;;;;;;;1.30;0.60;;;;;;;;;;5117092;28;20480;-62
2023/08/26 05:27:38;;;;;;;2.25;1.08;;;;;;;;;;5116023;28;20054;-62
2023/08/26 05:30:06;;;;;;;1.60;0.95;;;;;;;;;;5126495;27;20450;-62
2023/08/26 05:32:32;;;;;;;2.22;1.10;;;;;;;;;;5126293;27;20043;-62
2023/08/26 05:34:59;;;;;;;1.52;0.90;;;;;;;;;;5131179;27;20075;-62
2023/08/26 05:37:26;;;;;;;1.58;0.90;;;;;;;;;;5136977;27;20058;-62
2023/08/26 05:39:53;;;;;;;1.98;0.85;;;;;;;;;;5135774;27;20498;-61
2023/08/26 05:42:21;;;;;;;2.20;1.02;;;;;;;;;;5126739;27;20047;-62
2023/08/26 05:44:47;;;;;;;2.53;0.93;;;;;;;;;;5120227;27;20051;-61
2023/08/26 05:47:14;;;;;;;1.58;0.70;;;;;;;;;;5115885;28;20063;-62
2023/08/26 05:49:41;;;;;;;1.88;1.20;;;;;;;;;;5115852;28;20052;-61
2023/08/26 05:52:08;;;;;;;1.25;0.70;;;;;;;;;;5115707;28;20389;-62
2023/08/26 05:54:34;;;;;;;1.73;1.02;;;;;;;;;;5115884;28;20511;-62
2023/08/26 05:57:01;;;;;;;1.55;0.93;;;;;;;;;;5116087;28;20055;-62
2023/08/26 05:59:29;;;;;;;1.85;0.80;;;;;;;;;;5115927;28;20056;-62
2023/08/26 06:01:56;;;;;;;1.77;0.70;;;;;;;;;;5110499;28;20055;-61
2023/08/26 06:04:24;;;;;;;1.88;0.82;;;;;;;;;;5109100;27;20522;-62
2023/08/26 06:06:51;;;;;;;1.27;0.98;;;;;;;;;;5115165;28;20043;-61
2023/08/26 06:09:17;;;;;;;1.27;0.50;;;;;;;;;;5117460;27;20066;-62
2023/08/26 06:11:44;;;;;;;4.00;1.38;;;;;;;;;;5115434;28;20074;-62
2023/08/26 06:14:11;;;;;;;1.23;0.77;;;;;;;;;;5117300;27;20504;-62
2023/08/26 06:16:39;;;;;;;1.70;0.90;;;;;;;;;;5115485;28;20487;-62
2023/08/26 06:19:06;;;;;;;2.78;0.60;;;;;;;;;;5122295;27;20051;-62
2023/08/26 06:21:32;;;;;;;2.05;1.08;;;;;;;;;;5114728;27;20048;-62
2023/08/26 06:23:59;;;;;;;2.50;0.63;;;;;;;;;;5118794;27;20500;-61
2023/08/26 06:26:26;;;;;;;0.95;0.68;;;;;;;;;;5117338;27;20063;-62
2023/08/26 06:28:53;;;;;;;2.15;0.70;;;;;;;;;;5115646;28;20484;-62
2023/08/26 06:31:20;;;;;;;0.88;0.50;;;;;;;;;;5115297;28;20051;-61
2023/08/26 06:33:49;;;;;;;1.23;0.55;;;;;;;;;;5111748;27;20054;-62
2023/08/26 06:36:15;;;;;;;1.60;0.98;;;;;;;;;;5113617;27;20047;-62
2023/08/26 06:38:42;;;;;;;2.10;0.90;;;;;;;;;;5112600;28;20055;-62
2023/08/26 06:41:09;;;;;;;1.80;0.43;;;;;;;;;;5100336;28;20056;-60
2023/08/26 06:43:36;;;;;;;2.78;0.88;;;;;;;;;;5078560;28;20150;-61
2023/08/26 06:46:03;;;;;;;0.82;0.68;;;;;;;;;;5087760;28;20047;-61
2023/08/26 06:48:29;;;;;;;1.40;0.57;;;;;;;;;;5084005;28;20055;-61
2023/08/26 06:50:59;;;;;;;1.95;0.68;;;;;;;;;;5094559;28;20501;-61
2023/08/26 06:53:26;;;;;;;1.02;0.50;;;;;;;;;;5094179;28;20047;-62
2023/08/26 06:55:53;;;;;;;1.25;0.60;;;;;;;;;;5113475;28;20051;-62
2023/08/26 06:58:23;;;;;;;1.33;0.75;;;;;;;;;;5100639;28;20051;-62
2023/08/26 07:00:50;;;;;;;1.80;0.90;;;;;;;;;;5100643;28;20422;-61
2023/08/26 07:03:17;;;;;;;1.42;0.40;;;;;;;;;;5108135;28;20048;-61
2023/08/26 07:05:44;;;;;;;1.30;0.60;;;;;;;;;;5105920;28;20048;-61
2023/08/26 07:08:13;;;;;;;6.90;1.38;;;;;;;;;;5102785;28;20047;-62
2023/08/26 07:10:40;;;;;;;0.98;0.50;;;;;;;;;;5113051;28;20055;-62
2023/08/26 07:13:07;;;;;;;1.23;0.60;;;;;;;;;;5112903;28;20056;-62
2023/08/26 07:15:34;;;;;;;1.20;0.60;;;;;;;;;;5101943;28;20381;-62
2023/08/26 07:18:03;;;;;;;0.60;0.45;;;;;;;;;;5089510;28;20052;-62
2023/08/26 07:20:29;;;;;;;3.30;0.98;;;;;;;;;;5107850;28;20408;-62
2023/08/26 07:22:56;;;;;;;4.05;0.88;;;;;;;;;;5109731;28;20047;-62
2023/08/26 07:25:24;;;;;;;1.17;0.57;;;;;;;;;;5108687;28;20063;-62
2023/08/26 07:27:51;;;;;;;0.95;0.47;;;;;;;;;;5105285;28;20414;-62
2023/08/26 07:30:18;;;;;;;1.73;0.65;;;;;;;;;;5101373;28;20055;-62
2023/08/26 07:32:45;;;;;;;0.85;0.52;;;;;;;;;;5095941;28;20063;-61
2023/08/26 07:35:11;;;;;;;0.60;0.30;;;;;;;;;;5108192;28;20054;-62
2023/08/26 07:37:38;;;;;;;2.38;0.70;;;;;;;;;;5107089;28;20050;-62
2023/08/26 07:40:06;;;;;;;0.93;0.68;;;;;;;;;;5111720;28;20055;-63
2023/08/26 07:42:35;;;;;;;1.42;0.50;;;;;;;;;;5102452;27;20059;-59
2023/08/26 07:45:02;;;;;;;3.45;0.57;;;;;;;;;;5107171;28;20078;-61
2023/08/26 07:47:29;;;;;;;1.92;0.70;;;;;;;;;;5110058;27;20058;-62
2023/08/26 07:49:56;;;;;;;0.88;0.40;;;;;;;;;;5111237;28;20058;-60
2023/08/26 07:52:23;;;;;;;0.65;0.40;;;;;;;;;;5109833;27;20157;-61
2023/08/26 07:54:50;;;;;;;2.78;0.63;;;;;;;;;;5110836;27;20051;-62
2023/08/26 07:57:16;;;;;;;4.00;0.70;;;;;;;;;;5108505;28;20385;-61
2023/08/26 07:59:45;;;;;;;0.90;0.43;;;;;;;;;;5110339;28;20487;-62
2023/08/26 08:02:12;;;;;;;1.33;0.60;;;;;;;;;;5110574;27;20052;-61
2023/08/26 08:04:39;;;;;;;0.70;0.60;;;;;;;;;;5109552;28;20488;-62
2023/08/26 08:07:06;;;;;;;1.60;0.77;;;;;;;;;;5108966;28;20143;-61
2023/08/26 08:09:34;;;;;;;2.13;0.70;;;;;;;;;;5110235;28;20050;-62
2023/08/26 08:12:02;;;;;;;1.08;0.55;;;;;;;;;;5110159;28;20063;-61
2023/08/26 08:14:31;;;;;;;4.00;0.88;;;;;;;;;;5111892;28;20590;-61
2023/08/26 08:17:00;;;;;;;;;;;;;;;;;;5111969;27;20067;-62
2023/08/26 08:19:29;;;;;;;1.60;0.80;;;;;;;;;;5109808;28;19928;-61
2023/08/26 08:21:56;;;;;;;0.70;0.50;;;;;;;;;;5111350;28;20404;-61
2023/08/26 08:24:23;;;;;;;0.80;0.52;;;;;;;;;;5112525;28;20047;-62
2023/08/26 08:26:49;;;;;;;0.75;0.35;;;;;;;;;;5110482;27;20051;-59
2023/08/26 08:29:16;;;;;;;1.30;0.70;;;;;;;;;;5110993;28;20054;-46
2023/08/26 08:31:45;;;;;;;1.38;0.70;;;;;;;;;;5110094;28;20055;-46
2023/08/26 08:34:12;;;;;;;1.88;0.68;;;;;;;;;;5108990;27;20055;-47
2023/08/26 08:36:40;;;;;;;2.22;0.60;;;;;;;;;;5111749;28;20054;-47
2023/08/26 08:39:07;;;;;;;2.47;0.88;;;;;;;;;;5112576;28;20489;-45
2023/08/26 08:41:35;;;;;;;2.05;1.08;;;;;;;;;;5109143;28;20043;-45
2023/08/26 08:44:09;;;;;;;2.05;0.75;;;;;;;;;;5111593;28;20051;-46
2023/08/26 08:46:36;;;;;;;1.45;0.50;;;;;;;;;;5112149;27;20481;-60
2023/08/26 08:49:03;;;;;;;2.67;0.88;;;;;;;;;;5107479;27;20416;-60
2023/08/26 08:51:30;;;;;;;0.90;0.50;;;;;;;;;;5111714;28;20047;-61
2023/08/26 08:53:58;;;;;;;1.63;0.73;;;;;;;;;;5108578;28;20055;-60
2023/08/26 08:56:26;;;;;;;1.10;0.60;;;;;;;;;;5108510;28;20047;-61
2023/08/26 08:58:55;;;;;;;2.03;0.82;;;;;;;;;;5105059;28;20039;-60
2023/08/26 09:01:23;;;;;;;1.05;0.60;;;;;;;;;;5104031;28;20079;-61
2023/08/26 09:03:50;;;;;;;4.40;0.50;;;;;;;;;;5108174;28;20048;-61
2023/08/26 09:06:18;;;;;;;0.70;0.40;;;;;;;;;;5111936;28;20412;-61
2023/08/26 09:08:45;;;;;;;0.75;0.50;;;;;;;;;;5112362;28;20048;-60
2023/08/26 09:11:13;;;;;;;0.88;0.43;;;;;;;;;;5112714;28;20492;-60
2023/08/26 09:13:40;;;;;;;0.73;0.40;;;;;;;;;;5110948;28;20044;-60
2023/08/26 09:16:07;;;;;;;0.98;0.70;;;;;;;;;;5113839;28;20051;-60
2023/08/26 09:18:38;;;;;;;1.60;0.50;;;;;;;;;;5111501;28;20480;-60
2023/08/26 09:21:06;;;;;;;1.02;0.60;;;;;;;;;;5112409;28;20134;-60
2023/08/26 09:23:40;;;;;;;2.05;0.68;;;;;;;;;;5111105;28;20048;-61
2023/08/26 09:26:07;;;;;;;1.92;0.43;;;;;;;;;;5112631;28;20052;-61
2023/08/26 09:28:36;;;;;;;1.23;0.85;;;;;;;;;;5112450;28;20047;-61
2023/08/26 09:31:04;;;;;;;1.20;0.30;;;;;;;;;;5114924;28;20058;-60
2023/08/26 09:33:31;;;;;;;1.00;0.60;;;;;;;;;;5112050;28;20055;-60
2023/08/26 09:35:58;;;;;;;1.48;0.50;;;;;;;;;;5112083;28;20067;-60
2023/08/26 09:38:25;;;;;;;0.73;0.38;;;;;;;;;;5112430;28;20480;-60
2023/08/26 09:40:55;;;;;;;1.25;0.68;;;;;;;;;;5112407;28;20075;-60
2023/08/26 09:43:23;;;;;;;0.93;0.50;;;;;;;;;;5104140;28;20499;-60
2023/08/26 09:45:54;;;;;;;0.70;0.50;;;;;;;;;;5111675;28;20062;-60
2023/08/26 09:48:21;;;;;;;0.60;0.30;;;;;;;;;;5112450;28;20047;-60
2023/08/26 09:50:48;;;;;;;0.88;0.60;;;;;;;;;;5112078;28;20485;-60
2023/08/26 09:53:26;;;;;;;1.70;0.40;;;;;;;;;;5113724;28;20054;-60
2023/08/26 09:55:53;;;;;;;1.23;0.65;;;;;;;;;;5111438;28;20067;-60
2023/08/26 09:58:20;;;;;;;0.90;0.50;;;;;;;;;;5111682;28;20071;-60
2023/08/26 10:00:49;;;;;;;1.35;0.40;;;;;;;;;;5113260;28;20402;-60
2023/08/26 10:03:15;;;;;;;;;;;;;;;;;;5111367;28;20074;-60
2023/08/26 10:05:43;;;;;;;1.42;0.50;;;;;;;;;;5110851;28;19919;-60
2023/08/26 10:08:11;;;;;;;1.38;0.47;;;;;;;;;;5114560;27;20048;-60
2023/08/26 10:10:40;;;;;;;1.02;0.40;;;;;;;;;;5111429;27;20054;-60
2023/08/26 10:13:07;;;;;;;0.47;0.30;;;;;;;;;;5113109;28;20055;-60
2023/08/26 10:15:34;;;;;;;0.20;0.10;;;;;;;;;;5110425;27;20380;-60
2023/08/26 10:18:05;;;;;;;1.08;0.82;;;;;;;;;;5114965;27;20055;-60
2023/08/26 10:20:33;;;;;;;0.63;0.47;;;;;;;;;;5116123;28;20051;-59
2023/08/26 10:23:02;;;;;;;1.08;0.60;;;;;;;;;;5111495;27;20059;-60
2023/08/26 10:25:29;;;;;;;0.80;0.30;;;;;;;;;;5115420;28;20048;-60
2023/08/26 10:27:56;;;;;;;3.00;0.95;;;;;;;;;;5115706;28;20082;-60
2023/08/26 10:30:23;;;;;;;0.68;0.43;;;;;;;;;;5118232;27;20055;-61
2023/08/26 10:32:58;;;;;;;1.45;0.30;;;;;;;;;;5115296;28;20047;-60
2023/08/26 10:35:27;;;;;;;0.45;0.30;;;;;;;;;;5116124;27;20492;-60
2023/08/26 10:38:09;;;;;;;0.47;0.20;;;;;;;;;;5114903;28;20055;-59
2023/08/26 10:40:36;;;;;;;1.10;0.55;;;;;;;;;;5115458;28;20378;-60
2023/08/26 10:43:06;;;;;;;0.80;0.40;;;;;;;;;;5115517;28;20056;-59
2023/08/26 10:45:33;;;;;;;0.80;0.30;;;;;;;;;;5116397;27;20485;-59
2023/08/26 10:48:00;;;;;;;1.75;0.50;;;;;;;;;;5114710;28;20052;-60
2023/08/26 10:50:28;;;;;;;2.83;0.30;;;;;;;;;;5114780;28;20054;-59
2023/08/26 10:52:56;;;;;;;0.70;0.50;;;;;;;;;;5115340;28;20408;-60
2023/08/26 10:55:25;;;;;;;0.88;0.47;;;;;;;;;;5114573;27;20062;-59
2023/08/26 10:58:01;;;;;;;1.30;0.30;;;;;;;;;;5112800;28;20059;-60
2023/08/26 11:00:29;;;;;;;0.73;0.50;;;;;;;;;;5114705;27;20048;-60
2023/08/26 11:02:55;;;;;;;0.50;0.40;;;;;;;;;;5114906;28;20058;-58
2023/08/26 11:05:22;;;;;;;1.17;0.47;;;;;;;;;;5114007;28;20052;-59
2023/08/26 11:07:49;;;;;;;0.93;0.30;;;;;;;;;;5114847;28;20052;-59
2023/08/26 11:10:26;;;;;;;1.05;0.50;;;;;;;;;;5114728;28;20055;-59
2023/08/26 11:12:53;;;;;;;0.77;0.50;;;;;;;;;;5114788;28;20063;-59
2023/08/26 11:15:20;;;;;;;1.30;0.30;;;;;;;;;;5104213;27;20055;-59
2023/08/26 11:17:48;;;;;;;0.80;0.50;;;;;;;;;;5093978;28;20448;-59
2023/08/26 11:20:16;;;;;;;1.83;0.50;;;;;;;;;;5093531;28;20048;-58
2023/08/26 11:22:43;;;;;;;0.80;0.57;;;;;;;;;;5094145;28;20823;-59
2023/08/26 11:25:13;;;;;;;0.80;0.57;;;;;;;;;;5104475;27;20054;-59
2023/08/26 11:27:41;;;;;;;0.80;0.40;;;;;;;;;;5114214;28;20063;-59
2023/08/26 11:30:09;;;;;;;1.42;0.40;;;;;;;;;;5114044;27;20478;-59
2023/08/26 11:32:36;;;;;;;0.63;0.30;;;;;;;;;;5114370;28;20047;-59
2023/08/26 11:35:03;;;;;;;0.50;0.40;;;;;;;;;;5110021;27;20769;-59
2023/08/26 11:37:32;;;;;;;0.47;0.40;;;;;;;;;;5107611;27;20058;-60
2023/08/26 11:39:59;;;;;;;0.32;0.20;;;;;;;;;;5109721;28;20385;-59
2023/08/26 11:42:26;;;;;;;0.80;0.50;;;;;;;;;;5102839;28;20066;-59
2023/08/26 11:44:54;;;;;;;0.55;0.38;;;;;;;;;;5104383;27;20059;-60
2023/08/26 11:47:22;;;;;;;0.93;0.55;;;;;;;;;;5108887;27;20341;-59
2023/08/26 11:49:49;;;;;;;0.88;0.52;;;;;;;;;;5110025;27;20476;-60
2023/08/26 11:52:16;;;;;;;1.13;0.40;;;;;;;;;;5109536;27;20416;-59
2023/08/26 11:54:43;;;;;;;1.30;0.60;;;;;;;;;;5110086;27;20054;-59
2023/08/26 11:57:13;;;;;;;0.77;0.40;;;;;;;;;;5112964;28;20047;-60
2023/08/26 11:59:40;;;;;;;0.60;0.30;;;;;;;;;;5113106;27;20051;-59
2023/08/26 12:02:31;;;;;;;0.73;0.40;;;;;;;;;;5113345;28;20052;-59
2023/08/26 12:04:59;;;;;;;0.65;0.35;;;;;;;;;;5092088;28;20047;-59
2023/08/26 12:07:26;;;;;;;0.65;0.30;;;;;;;;;;5113001;28;20060;-59
2023/08/26 12:09:53;;;;;;;0.52;0.30;;;;;;;;;;5113034;28;20048;-59
2023/08/26 12:12:20;;;;;;;0.80;0.30;;;;;;;;;;5112339;28;20047;-59
2023/08/26 12:14:47;;;;;;;0.77;0.47;;;;;;;;;;5102840;27;20063;-59
2023/08/26 12:17:15;;;;;;;0.30;0.30;;;;;;;;;;5112814;27;20059;-59
2023/08/26 12:19:42;;;;;;;0.50;0.27;;;;;;;;;;5112968;28;20055;-59
2023/08/26 12:22:10;;;;;;;1.08;0.73;;;;;;;;;;5108404;27;20059;-59
2023/08/26 12:24:37;;;;;;;0.90;0.40;;;;;;;;;;5110225;27;20059;-59
2023/08/26 12:27:07;;;;;;;0.55;0.40;;;;;;;;;;5116292;27;20058;-59
2023/08/26 12:29:36;;;;;;;0.88;0.50;;;;;;;;;;5106201;28;20059;-59
2023/08/26 12:32:04;;;;;;;1.30;0.22;;;;;;;;;;5110536;27;20048;-61
2023/08/26 12:34:30;;;;;;;0.80;0.40;;;;;;;;;;5105286;27;20051;-60
2023/08/26 12:36:57;;;;;;;0.38;0.25;;;;;;;;;;5105220;27;20051;-60
2023/08/26 12:39:26;;;;;;;1.15;0.30;;;;;;;;;;5109154;28;20055;-60
2023/08/26 12:41:53;;;;;;;0.30;0.17;;;;;;;;;;5105828;27;20480;-59
2023/08/26 12:44:19;;;;;;;1.38;0.40;;;;;;;;;;5110425;27;20071;-58
2023/08/26 12:46:46;;;;;;;0.50;0.20;;;;;;;;;;5103542;28;20059;-59
2023/08/26 12:49:13;;;;;;;0.45;0.20;;;;;;;;;;5107959;27;20039;-58
2023/08/26 12:51:40;;;;;;;1.13;0.50;;;;;;;;;;5110659;28;20083;-59
2023/08/26 12:54:07;;;;;;;0.43;0.13;;;;;;;;;;5097850;28;20062;-59
2023/08/26 12:56:35;;;;;;;1.52;0.30;;;;;;;;;;5110009;27;20051;-60
2023/08/26 12:59:02;;;;;;;0.90;0.45;;;;;;;;;;5113402;27;20047;-59
2023/08/26 13:01:29;;;;;;;1.67;0.45;;;;;;;;;;5111479;27;20052;-59
2023/08/26 13:03:55;;;;;;;1.15;0.55;;;;;;;;;;5112636;28;20077;-59
2023/08/26 13:06:22;;;;;;;0.93;0.45;;;;;;;;;;5111958;28;20055;-59
2023/08/26 13:08:49;;;;;;;1.10;0.43;;;;;;;;;;5112652;28;20384;-59
2023/08/26 13:11:16;;;;;;;0.43;0.30;;;;;;;;;;5110985;28;20412;-59
2023/08/26 13:13:44;;;;;;;1.25;0.50;;;;;;;;;;5113356;28;20094;-59
2023/08/26 13:16:10;;;;;;;1.13;0.65;;;;;;;;;;5112220;28;20052;-59
2023/08/26 13:18:38;;;;;;;1.65;0.43;;;;;;;;;;5112658;28;20055;-60
2023/08/26 13:21:05;;;;;;;0.40;0.22;;;;;;;;;;5112105;28;20051;-59
2023/08/26 13:23:31;;;;;;;0.77;0.40;;;;;;;;;;5112141;28;20060;-60
2023/08/26 13:25:58;;;;;;;0.40;0.30;;;;;;;;;;5112277;28;20416;-59
2023/08/26 13:28:25;;;;;;;1.02;0.50;;;;;;;;;;5111327;28;20052;-60
2023/08/26 13:30:55;;;;;;;0.93;0.40;;;;;;;;;;5112259;28;20055;-60
2023/08/26 13:33:23;;;;;;;0.70;0.40;;;;;;;;;;5111877;28;20051;-60
2023/08/26 13:35:50;;;;;;;1.02;0.57;;;;;;;;;;5110717;28;20056;-58
2023/08/26 13:38:17;;;;;;;1.20;0.50;;;;;;;;;;5100712;28;20393;-60
2023/08/26 13:40:44;;;;;;;0.47;0.38;;;;;;;;;;5103210;28;20374;-59
2023/08/26 13:43:11;;;;;;;0.60;0.30;;;;;;;;;;5108145;28;20052;-59
2023/08/26 13:45:37;;;;;;;0.50;0.22;;;;;;;;;;5095424;28;20412;-59
2023/08/26 13:48:06;;;;;;;0.68;0.30;;;;;;;;;;5095984;28;20052;-59
2023/08/26 13:50:33;;;;;;;0.50;0.20;;;;;;;;;;5095592;28;20382;-59
2023/08/26 13:53:00;;;;;;;0.75;0.40;;;;;;;;;;5095049;28;20464;-59
2023/08/26 13:55:27;;;;;;;0.95;0.47;;;;;;;;;;5100834;28;20417;-59
2023/08/26 13:57:53;;;;;;;0.68;0.20;;;;;;;;;;5097241;28;20078;-59
2023/08/26 14:00:20;;;;;;;0.80;0.50;;;;;;;;;;5115923;28;20051;-59
2023/08/26 14:02:47;;;;;;;0.60;0.30;;;;;;;;;;5114450;28;20051;-58
2023/08/26 14:05:15;;;;;;;0.70;0.40;;;;;;;;;;5114681;28;20056;-59
2023/08/26 14:07:44;;;;;;;1.00;0.40;;;;;;;;;;5103129;28;20056;-59
2023/08/26 14:10:11;;;;;;;0.75;0.55;;;;;;;;;;5099576;28;20055;-59
2023/08/26 14:12:38;;;;;;;3.20;0.68;;;;;;;;;;5089603;28;20052;-60
2023/08/26 14:15:07;;;;;;;0.52;0.40;;;;;;;;;;5096113;28;20048;-59
2023/08/26 14:17:34;;;;;;;0.70;0.50;;;;;;;;;;5083766;28;20429;-59
2023/08/26 14:20:00;;;;;;;0.90;0.38;;;;;;;;;;5091560;28;20055;-59
2023/08/26 14:22:28;;;;;;;1.23;0.70;;;;;;;;;;5093284;28;20055;-58
2023/08/26 14:24:55;;;;;;;0.30;0.20;;;;;;;;;;5091434;28;20048;-59
2023/08/26 14:27:22;;;;;;;0.60;0.32;;;;;;;;;;5086896;28;20501;-58
2023/08/26 14:29:49;;;;;;;1.38;0.75;;;;;;;;;;5093920;28;20420;-59
2023/08/26 14:32:16;;;;;;;0.52;0.40;;;;;;;;;;5094329;28;20048;-60
2023/08/26 14:34:42;;;;;;;0.57;0.30;;;;;;;;;;5089312;28;20052;-60
2023/08/26 14:37:09;;;;;;;1.08;0.30;;;;;;;;;;5101280;27;20055;-59
2023/08/26 14:39:40;;;;;;;0.80;0.38;;;;;;;;;;5106269;27;20088;-59
2023/08/26 14:42:07;;;;;;;0.73;0.30;;;;;;;;;;5113682;28;20062;-60
2023/08/26 14:44:34;;;;;;;1.23;0.30;;;;;;;;;;5116908;27;20075;-59
2023/08/26 14:47:01;;;;;;;0.98;0.40;;;;;;;;;;5114487;27;20052;-59
2023/08/26 14:49:29;;;;;;;1.27;0.63;;;;;;;;;;5114664;27;20067;-59